Terminal Aerodrome Forecast
Issued by NWS Missoula, MT

Home | Current Version | Previous Version | Text Only | Print | Product List | Glossary On
Versions: 1 2 3 4 5 6 7 8 9 10 11 12 13 14 15 16
932
FTUS45 KMSO 221120
TAFBTM
TAF
KBTM 221120Z 2212/2312 14005KT P6SM SCT060
     FM222100 09012G22KT P6SM VCTS BKN050CB OVC090
     FM222300 06015G25KT P6SM SHRA OVC050
     FM230300 01010KT P6SM BKN050=

USA.gov is the U.S. government's official web portal to all federal, state and local government web resources and services.